sensor_id;sensor_type;location;lat;lon;timestamp;temperature;humidity
8858;DHT22;4465;50.904;4.696;2023-02-08T00:00:34;-0.80;99.90
8858;DHT22;4465;50.904;4.696;2023-02-08T00:03:00;-0.80;99.90
8858;DHT22;4465;50.904;4.696;2023-02-08T00:05:26;-0.80;99.90
8858;DHT22;4465;50.904;4.696;2023-02-08T00:07:51;-0.80;99.90
8858;DHT22;4465;50.904;4.696;2023-02-08T00:10:17;-0.80;99.90
8858;DHT22;4465;50.904;4.696;2023-02-08T00:12:45;-0.70;99.90
8858;DHT22;4465;50.904;4.696;2023-02-08T00:15:11;-0.80;99.90
8858;DHT22;4465;50.904;4.696;2023-02-08T00:17:38;-0.80;99.90
8858;DHT22;4465;50.904;4.696;2023-02-08T00:20:04;-0.80;99.90
8858;DHT22;4465;50.904;4.696;2023-02-08T00:22:35;-0.80;99.90
8858;DHT22;4465;50.904;4.696;2023-02-08T00:25:04;-0.80;99.90
8858;DHT22;4465;50.904;4.696;2023-02-08T00:27:35;-0.80;99.90
8858;DHT22;4465;50.904;4.696;2023-02-08T00:30:01;-0.80;99.90
8858;DHT22;4465;50.904;4.696;2023-02-08T00:32:27;-0.80;99.90
8858;DHT22;4465;50.904;4.696;2023-02-08T00:34:55;-0.80;99.90
8858;DHT22;4465;50.904;4.696;2023-02-08T00:37:21;-0.80;99.90
8858;DHT22;4465;50.904;4.696;2023-02-08T00:39:47;-0.80;99.90
8858;DHT22;4465;50.904;4.696;2023-02-08T00:42:15;-0.80;99.90
8858;DHT22;4465;50.904;4.696;2023-02-08T00:44:45;-0.90;99.90
8858;DHT22;4465;50.904;4.696;2023-02-08T00:47:13;-0.80;99.90
8858;DHT22;4465;50.904;4.696;2023-02-08T00:49:39;-0.90;99.90
8858;DHT22;4465;50.904;4.696;2023-02-08T00:52:05;-0.80;99.90
8858;DHT22;4465;50.904;4.696;2023-02-08T00:54:31;-0.80;99.90
8858;DHT22;4465;50.904;4.696;2023-02-08T00:56:58;-0.90;99.90
8858;DHT22;4465;50.904;4.696;2023-02-08T00:59:25;-0.90;99.90
8858;DHT22;4465;50.904;4.696;2023-02-08T01:01:52;-0.90;99.90
8858;DHT22;4465;50.904;4.696;2023-02-08T01:04:20;-0.80;99.90
8858;DHT22;4465;50.904;4.696;2023-02-08T01:06:46;-0.90;99.90
8858;DHT22;4465;50.904;4.696;2023-02-08T01:09:14;-1.00;99.90
8858;DHT22;4465;50.904;4.696;2023-02-08T01:11:40;-0.90;99.90
8858;DHT22;4465;50.904;4.696;2023-02-08T01:14:06;-1.00;99.90
8858;DHT22;4465;50.904;4.696;2023-02-08T01:16:32;-1.00;99.90
8858;DHT22;4465;50.904;4.696;2023-02-08T01:18:59;-1.00;99.90
8858;DHT22;4465;50.904;4.696;2023-02-08T01:21:29;-1.00;99.90
8858;DHT22;4465;50.904;4.696;2023-02-08T01:23:55;-1.00;99.90
8858;DHT22;4465;50.904;4.696;2023-02-08T01:26:22;-1.10;99.90
8858;DHT22;4465;50.904;4.696;2023-02-08T01:28:49;-1.10;99.90
8858;DHT22;4465;50.904;4.696;2023-02-08T01:31:19;-1.10;99.90
8858;DHT22;4465;50.904;4.696;2023-02-08T01:33:45;-1.10;99.90
8858;DHT22;4465;50.904;4.696;2023-02-08T01:36:12;-1.10;99.90
8858;DHT22;4465;50.904;4.696;2023-02-08T01:38:41;-1.20;99.90
8858;DHT22;4465;50.904;4.696;2023-02-08T01:41:15;-1.20;99.90
8858;DHT22;4465;50.904;4.696;2023-02-08T01:46:37;-1.30;99.90
8858;DHT22;4465;50.904;4.696;2023-02-08T01:49:15;-1.30;99.90
8858;DHT22;4465;50.904;4.696;2023-02-08T01:51:51;-1.40;99.90
8858;DHT22;4465;50.904;4.696;2023-02-08T01:54:20;-1.40;99.90
8858;DHT22;4465;50.904;4.696;2023-02-08T01:56:49;-1.40;99.90
8858;DHT22;4465;50.904;4.696;2023-02-08T01:59:25;-1.40;99.90
8858;DHT22;4465;50.904;4.696;2023-02-08T02:01:53;-1.50;99.90
8858;DHT22;4465;50.904;4.696;2023-02-08T02:04:20;-1.50;99.90
8858;DHT22;4465;50.904;4.696;2023-02-08T02:06:49;-1.50;99.90
8858;DHT22;4465;50.904;4.696;2023-02-08T02:09:37;-1.50;99.90
8858;DHT22;4465;50.904;4.696;2023-02-08T02:12:05;-1.60;99.90
8858;DHT22;4465;50.904;4.696;2023-02-08T02:14:32;-1.60;99.90
8858;DHT22;4465;50.904;4.696;2023-02-08T02:16:59;-1.60;99.90
8858;DHT22;4465;50.904;4.696;2023-02-08T02:19:46;-1.70;99.90
8858;DHT22;4465;50.904;4.696;2023-02-08T02:27:40;-1.80;99.90
8858;DHT22;4465;50.904;4.696;2023-02-08T02:33:22;-1.80;99.90
8858;DHT22;4465;50.904;4.696;2023-02-08T02:39:08;-1.80;99.90
8858;DHT22;4465;50.904;4.696;2023-02-08T02:47:22;-1.90;99.90
8858;DHT22;4465;50.904;4.696;2023-02-08T02:49:54;-1.90;99.90
8858;DHT22;4465;50.904;4.696;2023-02-08T02:52:34;-1.90;99.90
8858;DHT22;4465;50.904;4.696;2023-02-08T02:55:10;-1.90;99.90
8858;DHT22;4465;50.904;4.696;2023-02-08T02:57:41;-1.90;99.90
8858;DHT22;4465;50.904;4.696;2023-02-08T03:00:10;-1.90;99.90
8858;DHT22;4465;50.904;4.696;2023-02-08T03:02:36;-1.90;99.90
8858;DHT22;4465;50.904;4.696;2023-02-08T03:05:06;-1.90;99.90
8858;DHT22;4465;50.904;4.696;2023-02-08T03:07:47;-1.90;99.90
8858;DHT22;4465;50.904;4.696;2023-02-08T03:10:31;-1.90;99.90
8858;DHT22;4465;50.904;4.696;2023-02-08T03:16:18;-1.90;99.90
8858;DHT22;4465;50.904;4.696;2023-02-08T03:24:50;-1.90;99.90
8858;DHT22;4465;50.904;4.696;2023-02-08T03:27:33;-1.90;99.90
8858;DHT22;4465;50.904;4.696;2023-02-08T03:30:15;-1.90;99.90
8858;DHT22;4465;50.904;4.696;2023-02-08T03:32:49;-1.90;99.90
8858;DHT22;4465;50.904;4.696;2023-02-08T03:35:31;-1.90;99.90
8858;DHT22;4465;50.904;4.696;2023-02-08T03:38:14;-1.90;99.90
8858;DHT22;4465;50.904;4.696;2023-02-08T03:40:46;-1.90;99.90
8858;DHT22;4465;50.904;4.696;2023-02-08T03:43:21;-1.90;99.90
8858;DHT22;4465;50.904;4.696;2023-02-08T03:45:56;-1.90;99.90
8858;DHT22;4465;50.904;4.696;2023-02-08T03:48:26;-1.90;99.90
8858;DHT22;4465;50.904;4.696;2023-02-08T03:50:55;-1.90;99.90
8858;DHT22;4465;50.904;4.696;2023-02-08T03:53:25;-1.90;99.90
8858;DHT22;4465;50.904;4.696;2023-02-08T03:55:57;-1.90;99.90
8858;DHT22;4465;50.904;4.696;2023-02-08T03:58:34;-1.90;99.90
8858;DHT22;4465;50.904;4.696;2023-02-08T04:01:13;-1.90;99.90
8858;DHT22;4465;50.904;4.696;2023-02-08T04:03:42;-1.90;99.90
8858;DHT22;4465;50.904;4.696;2023-02-08T04:06:09;-1.90;99.90
8858;DHT22;4465;50.904;4.696;2023-02-08T04:08:35;-1.90;99.90
8858;DHT22;4465;50.904;4.696;2023-02-08T04:11:01;-1.90;99.90
8858;DHT22;4465;50.904;4.696;2023-02-08T04:13:27;-1.90;99.90
8858;DHT22;4465;50.904;4.696;2023-02-08T04:15:52;-1.90;99.90
8858;DHT22;4465;50.904;4.696;2023-02-08T04:18:18;-1.90;99.90
8858;DHT22;4465;50.904;4.696;2023-02-08T04:20:44;-1.90;99.90
8858;DHT22;4465;50.904;4.696;2023-02-08T04:23:10;-1.90;99.90
8858;DHT22;4465;50.904;4.696;2023-02-08T04:25:36;-1.90;99.90
8858;DHT22;4465;50.904;4.696;2023-02-08T04:28:02;-1.90;99.90
8858;DHT22;4465;50.904;4.696;2023-02-08T04:30:28;-1.90;99.90
8858;DHT22;4465;50.904;4.696;2023-02-08T04:32:56;-2.00;99.90
8858;DHT22;4465;50.904;4.696;2023-02-08T04:35:24;-2.00;99.90
8858;DHT22;4465;50.904;4.696;2023-02-08T04:37:53;-2.00;99.90
8858;DHT22;4465;50.904;4.696;2023-02-08T04:40:19;-2.00;99.90
8858;DHT22;4465;50.904;4.696;2023-02-08T04:42:47;-2.00;99.90
8858;DHT22;4465;50.904;4.696;2023-02-08T04:45:15;-2.00;99.90
8858;DHT22;4465;50.904;4.696;2023-02-08T04:47:44;-2.00;99.90
8858;DHT22;4465;50.904;4.696;2023-02-08T04:50:10;-2.00;99.90
8858;DHT22;4465;50.904;4.696;2023-02-08T04:52:35;-2.00;99.90
8858;DHT22;4465;50.904;4.696;2023-02-08T04:55:01;-2.00;99.90
8858;DHT22;4465;50.904;4.696;2023-02-08T04:57:27;-2.00;99.90
8858;DHT22;4465;50.904;4.696;2023-02-08T04:59:56;-2.00;99.90
8858;DHT22;4465;50.904;4.696;2023-02-08T05:02:22;-2.00;99.90
8858;DHT22;4465;50.904;4.696;2023-02-08T05:04:48;-2.00;99.90
8858;DHT22;4465;50.904;4.696;2023-02-08T05:07:13;-2.00;99.90
8858;DHT22;4465;50.904;4.696;2023-02-08T05:09:39;-2.00;99.90
8858;DHT22;4465;50.904;4.696;2023-02-08T05:12:08;-1.90;99.90
8858;DHT22;4465;50.904;4.696;2023-02-08T05:14:33;-1.90;99.90
8858;DHT22;4465;50.904;4.696;2023-02-08T05:16:59;-1.90;99.90
8858;DHT22;4465;50.904;4.696;2023-02-08T05:19:25;-1.90;99.90
8858;DHT22;4465;50.904;4.696;2023-02-08T05:21:51;-1.90;99.90
8858;DHT22;4465;50.904;4.696;2023-02-08T05:24:19;-1.90;99.90
8858;DHT22;4465;50.904;4.696;2023-02-08T05:26:47;-1.80;99.90
8858;DHT22;4465;50.904;4.696;2023-02-08T05:29:13;-1.90;99.90
8858;DHT22;4465;50.904;4.696;2023-02-08T05:31:40;-1.90;99.90
8858;DHT22;4465;50.904;4.696;2023-02-08T05:34:06;-1.90;99.90
8858;DHT22;4465;50.904;4.696;2023-02-08T05:36:31;-1.90;99.90
8858;DHT22;4465;50.904;4.696;2023-02-08T05:39:00;-1.90;99.90
8858;DHT22;4465;50.904;4.696;2023-02-08T05:41:26;-1.80;99.90
8858;DHT22;4465;50.904;4.696;2023-02-08T05:43:51;-1.90;99.90
8858;DHT22;4465;50.904;4.696;2023-02-08T05:46:17;-1.90;99.90
8858;DHT22;4465;50.904;4.696;2023-02-08T05:48:43;-1.80;99.90
8858;DHT22;4465;50.904;4.696;2023-02-08T05:51:09;-1.80;99.90
8858;DHT22;4465;50.904;4.696;2023-02-08T05:53:37;-1.80;99.90
8858;DHT22;4465;50.904;4.696;2023-02-08T05:56:03;-1.80;99.90
8858;DHT22;4465;50.904;4.696;2023-02-08T05:58:29;-1.80;99.90
8858;DHT22;4465;50.904;4.696;2023-02-08T06:00:57;-1.80;99.90
8858;DHT22;4465;50.904;4.696;2023-02-08T06:03:23;-1.80;99.90
8858;DHT22;4465;50.904;4.696;2023-02-08T06:05:50;-1.70;99.90
8858;DHT22;4465;50.904;4.696;2023-02-08T06:08:23;-1.80;99.90
8858;DHT22;4465;50.904;4.696;2023-02-08T06:10:51;-1.80;99.90
8858;DHT22;4465;50.904;4.696;2023-02-08T06:13:17;-1.80;99.90
8858;DHT22;4465;50.904;4.696;2023-02-08T06:15:43;-1.70;99.90
8858;DHT22;4465;50.904;4.696;2023-02-08T06:18:09;-1.80;99.90
8858;DHT22;4465;50.904;4.696;2023-02-08T06:20:36;-1.80;99.90
8858;DHT22;4465;50.904;4.696;2023-02-08T06:23:05;-1.80;99.90
8858;DHT22;4465;50.904;4.696;2023-02-08T06:25:33;-1.80;99.90
8858;DHT22;4465;50.904;4.696;2023-02-08T06:28:02;-1.80;99.90
8858;DHT22;4465;50.904;4.696;2023-02-08T06:30:28;-1.70;99.90
8858;DHT22;4465;50.904;4.696;2023-02-08T06:32:54;-1.70;99.90
8858;DHT22;4465;50.904;4.696;2023-02-08T06:35:22;-1.70;99.90
8858;DHT22;4465;50.904;4.696;2023-02-08T06:37:48;-1.70;99.90
8858;DHT22;4465;50.904;4.696;2023-02-08T06:40:14;-1.70;99.90
8858;DHT22;4465;50.904;4.696;2023-02-08T06:42:42;-1.70;99.90
8858;DHT22;4465;50.904;4.696;2023-02-08T06:45:10;-1.70;99.90
8858;DHT22;4465;50.904;4.696;2023-02-08T06:47:35;-1.70;99.90
8858;DHT22;4465;50.904;4.696;2023-02-08T06:50:01;-1.70;99.90
8858;DHT22;4465;50.904;4.696;2023-02-08T06:52:30;-1.70;99.90
8858;DHT22;4465;50.904;4.696;2023-02-08T06:54:55;-1.70;99.90
8858;DHT22;4465;50.904;4.696;2023-02-08T06:57:21;-1.70;99.90
8858;DHT22;4465;50.904;4.696;2023-02-08T06:59:47;-1.70;99.90
8858;DHT22;4465;50.904;4.696;2023-02-08T07:02:16;-1.70;99.90
8858;DHT22;4465;50.904;4.696;2023-02-08T07:04:43;-1.80;99.90
8858;DHT22;4465;50.904;4.696;2023-02-08T07:07:14;-1.70;99.90
8858;DHT22;4465;50.904;4.696;2023-02-08T07:09:40;-1.70;99.90
8858;DHT22;4465;50.904;4.696;2023-02-08T07:12:06;-1.70;99.90
8858;DHT22;4465;50.904;4.696;2023-02-08T07:14:34;-1.70;99.90
8858;DHT22;4465;50.904;4.696;2023-02-08T07:17:00;-1.70;99.90
8858;DHT22;4465;50.904;4.696;2023-02-08T07:19:28;-1.70;99.90
8858;DHT22;4465;50.904;4.696;2023-02-08T07:21:54;-1.70;99.90
8858;DHT22;4465;50.904;4.696;2023-02-08T07:24:21;-1.70;99.90
8858;DHT22;4465;50.904;4.696;2023-02-08T07:26:47;-1.60;99.90
8858;DHT22;4465;50.904;4.696;2023-02-08T07:29:12;-1.50;99.90
8858;DHT22;4465;50.904;4.696;2023-02-08T07:31:38;-1.60;99.90
8858;DHT22;4465;50.904;4.696;2023-02-08T07:34:04;-1.60;99.90
8858;DHT22;4465;50.904;4.696;2023-02-08T07:36:30;-1.50;99.90
8858;DHT22;4465;50.904;4.696;2023-02-08T07:38:56;-1.50;99.90
8858;DHT22;4465;50.904;4.696;2023-02-08T07:41:22;-1.50;99.90
8858;DHT22;4465;50.904;4.696;2023-02-08T07:43:50;-1.40;99.90
8858;DHT22;4465;50.904;4.696;2023-02-08T07:46:19;-1.40;99.90
8858;DHT22;4465;50.904;4.696;2023-02-08T07:48:45;-1.40;99.90
8858;DHT22;4465;50.904;4.696;2023-02-08T07:51:12;-1.30;99.90
8858;DHT22;4465;50.904;4.696;2023-02-08T07:53:38;-1.30;99.90
8858;DHT22;4465;50.904;4.696;2023-02-08T07:56:04;-1.30;99.90
8858;DHT22;4465;50.904;4.696;2023-02-08T07:58:32;-1.20;99.90
8858;DHT22;4465;50.904;4.696;2023-02-08T08:00:58;-1.00;99.90
8858;DHT22;4465;50.904;4.696;2023-02-08T08:03:24;-1.00;99.90
8858;DHT22;4465;50.904;4.696;2023-02-08T08:05:50;-0.90;99.90
8858;DHT22;4465;50.904;4.696;2023-02-08T08:08:19;-0.90;99.90
8858;DHT22;4465;50.904;4.696;2023-02-08T08:10:45;-0.80;99.90
8858;DHT22;4465;50.904;4.696;2023-02-08T08:13:16;-0.70;99.90
8858;DHT22;4465;50.904;4.696;2023-02-08T08:15:48;-0.50;99.90
8858;DHT22;4465;50.904;4.696;2023-02-08T08:18:14;-0.60;99.90
8858;DHT22;4465;50.904;4.696;2023-02-08T08:20:40;-0.50;99.90
8858;DHT22;4465;50.904;4.696;2023-02-08T08:23:07;-0.40;99.90
8858;DHT22;4465;50.904;4.696;2023-02-08T08:25:36;-0.30;99.90
8858;DHT22;4465;50.904;4.696;2023-02-08T08:28:03;-0.10;99.90
8858;DHT22;4465;50.904;4.696;2023-02-08T08:30:31;0.00;99.90
8858;DHT22;4465;50.904;4.696;2023-02-08T08:32:59;0.10;99.90
8858;DHT22;4465;50.904;4.696;2023-02-08T08:35:25;0.30;99.90
8858;DHT22;4465;50.904;4.696;2023-02-08T08:37:53;0.60;99.90
8858;DHT22;4465;50.904;4.696;2023-02-08T08:40:19;0.90;99.90
8858;DHT22;4465;50.904;4.696;2023-02-08T08:42:45;1.10;99.90
8858;DHT22;4465;50.904;4.696;2023-02-08T08:45:10;1.40;99.90
8858;DHT22;4465;50.904;4.696;2023-02-08T08:47:36;1.80;99.90
8858;DHT22;4465;50.904;4.696;2023-02-08T08:50:02;1.90;99.90
8858;DHT22;4465;50.904;4.696;2023-02-08T08:52:28;2.10;99.90
8858;DHT22;4465;50.904;4.696;2023-02-08T08:54:56;2.20;99.90
8858;DHT22;4465;50.904;4.696;2023-02-08T08:57:22;2.20;99.90
8858;DHT22;4465;50.904;4.696;2023-02-08T08:59:48;2.30;99.90
8858;DHT22;4465;50.904;4.696;2023-02-08T09:02:14;2.30;99.90
8858;DHT22;4465;50.904;4.696;2023-02-08T09:04:47;2.40;99.90
8858;DHT22;4465;50.904;4.696;2023-02-08T09:07:13;2.30;99.90
8858;DHT22;4465;50.904;4.696;2023-02-08T09:09:39;2.20;99.90
8858;DHT22;4465;50.904;4.696;2023-02-08T09:12:06;2.30;99.90
8858;DHT22;4465;50.904;4.696;2023-02-08T09:14:32;2.30;99.90
8858;DHT22;4465;50.904;4.696;2023-02-08T09:16:58;2.40;99.90
8858;DHT22;4465;50.904;4.696;2023-02-08T09:19:27;2.30;99.90
8858;DHT22;4465;50.904;4.696;2023-02-08T09:21:55;2.40;99.90
8858;DHT22;4465;50.904;4.696;2023-02-08T09:24:23;2.50;99.90
8858;DHT22;4465;50.904;4.696;2023-02-08T09:26:53;2.60;99.90
8858;DHT22;4465;50.904;4.696;2023-02-08T09:29:21;2.60;99.90
8858;DHT22;4465;50.904;4.696;2023-02-08T09:31:50;2.60;99.90
8858;DHT22;4465;50.904;4.696;2023-02-08T09:34:16;2.80;99.90
8858;DHT22;4465;50.904;4.696;2023-02-08T09:36:43;2.80;99.90
8858;DHT22;4465;50.904;4.696;2023-02-08T09:39:18;3.00;99.90
8858;DHT22;4465;50.904;4.696;2023-02-08T09:45:23;3.20;99.90
8858;DHT22;4465;50.904;4.696;2023-02-08T09:48:01;3.30;99.90
8858;DHT22;4465;50.904;4.696;2023-02-08T09:50:35;3.50;99.90
8858;DHT22;4465;50.904;4.696;2023-02-08T09:56:05;3.80;99.90
8858;DHT22;4465;50.904;4.696;2023-02-08T09:58:46;4.10;99.90
8858;DHT22;4465;50.904;4.696;2023-02-08T10:01:24;4.20;99.90
8858;DHT22;4465;50.904;4.696;2023-02-08T10:03:56;4.50;99.90
8858;DHT22;4465;50.904;4.696;2023-02-08T10:06:24;4.60;99.90
8858;DHT22;4465;50.904;4.696;2023-02-08T10:08:51;4.80;99.90
8858;DHT22;4465;50.904;4.696;2023-02-08T10:11:49;4.90;99.90
8858;DHT22;4465;50.904;4.696;2023-02-08T10:14:33;5.10;99.90
8858;DHT22;4465;50.904;4.696;2023-02-08T10:27:59;6.40;99.90
8858;DHT22;4465;50.904;4.696;2023-02-08T10:30:43;6.70;99.90
8858;DHT22;4465;50.904;4.696;2023-02-08T10:35:56;7.30;99.90
8858;DHT22;4465;50.904;4.696;2023-02-08T10:38:29;7.60;99.90
8858;DHT22;4465;50.904;4.696;2023-02-08T10:40:57;7.90;99.90
8858;DHT22;4465;50.904;4.696;2023-02-08T10:43:47;8.10;99.90
8858;DHT22;4465;50.904;4.696;2023-02-08T10:49:03;8.90;99.90
8858;DHT22;4465;50.904;4.696;2023-02-08T10:51:32;9.20;99.90
8858;DHT22;4465;50.904;4.696;2023-02-08T10:53:58;9.50;99.90
8858;DHT22;4465;50.904;4.696;2023-02-08T10:56:36;9.60;99.90
8858;DHT22;4465;50.904;4.696;2023-02-08T11:01:45;10.10;99.90
8858;DHT22;4465;50.904;4.696;2023-02-08T11:04:13;10.20;99.90
8858;DHT22;4465;50.904;4.696;2023-02-08T11:06:42;10.30;99.90
8858;DHT22;4465;50.904;4.696;2023-02-08T11:09:30;10.40;99.90
8858;DHT22;4465;50.904;4.696;2023-02-08T11:12:00;10.50;99.90
8858;DHT22;4465;50.904;4.696;2023-02-08T11:14:28;10.50;99.90
8858;DHT22;4465;50.904;4.696;2023-02-08T11:16:57;10.60;99.90
8858;DHT22;4465;50.904;4.696;2023-02-08T11:19:38;10.70;99.90
8858;DHT22;4465;50.904;4.696;2023-02-08T11:22:18;10.70;99.90
8858;DHT22;4465;50.904;4.696;2023-02-08T11:24:56;10.80;99.90
8858;DHT22;4465;50.904;4.696;2023-02-08T11:32:38;11.40;99.90
8858;DHT22;4465;50.904;4.696;2023-02-08T11:35:30;11.50;99.90
8858;DHT22;4465;50.904;4.696;2023-02-08T11:37:58;11.90;99.90
8858;DHT22;4465;50.904;4.696;2023-02-08T11:40:43;12.20;99.90
8858;DHT22;4465;50.904;4.696;2023-02-08T11:43:31;12.60;99.90
8858;DHT22;4465;50.904;4.696;2023-02-08T11:45:58;12.80;99.90
8858;DHT22;4465;50.904;4.696;2023-02-08T11:48:42;13.00;99.90
8858;DHT22;4465;50.904;4.696;2023-02-08T11:51:09;13.20;99.90
8858;DHT22;4465;50.904;4.696;2023-02-08T11:53:46;13.40;99.90
8858;DHT22;4465;50.904;4.696;2023-02-08T12:01:41;13.60;99.90
8858;DHT22;4465;50.904;4.696;2023-02-08T12:04:09;13.50;99.90
8858;DHT22;4465;50.904;4.696;2023-02-08T12:07:07;13.30;99.90
8858;DHT22;4465;50.904;4.696;2023-02-08T12:18:32;13.40;99.90
8858;DHT22;4465;50.904;4.696;2023-02-08T12:21:14;13.20;99.90
8858;DHT22;4465;50.904;4.696;2023-02-08T12:26:33;12.90;99.90
8858;DHT22;4465;50.904;4.696;2023-02-08T12:41:43;13.20;99.90
8858;DHT22;4465;50.904;4.696;2023-02-08T12:44:22;13.60;99.90
8858;DHT22;4465;50.904;4.696;2023-02-08T12:47:06;13.90;99.90
8858;DHT22;4465;50.904;4.696;2023-02-08T12:52:40;14.30;99.90
8858;DHT22;4465;50.904;4.696;2023-02-08T12:57:48;14.60;99.90
8858;DHT22;4465;50.904;4.696;2023-02-08T13:00:26;14.60;99.90
8858;DHT22;4465;50.904;4.696;2023-02-08T13:05:47;14.50;99.90
8858;DHT22;4465;50.904;4.696;2023-02-08T13:08:28;14.40;99.90
8858;DHT22;4465;50.904;4.696;2023-02-08T13:10:58;14.30;99.90
8858;DHT22;4465;50.904;4.696;2023-02-08T13:13:35;14.30;99.90
8858;DHT22;4465;50.904;4.696;2023-02-08T13:16:25;14.10;99.90
8858;DHT22;4465;50.904;4.696;2023-02-08T13:18:54;13.90;99.90
8858;DHT22;4465;50.904;4.696;2023-02-08T13:21:28;13.60;99.90
8858;DHT22;4465;50.904;4.696;2023-02-08T13:23:57;13.30;99.90
8858;DHT22;4465;50.904;4.696;2023-02-08T13:26:27;13.00;99.90
8858;DHT22;4465;50.904;4.696;2023-02-08T13:29:00;12.70;99.90
8858;DHT22;4465;50.904;4.696;2023-02-08T13:31:40;12.50;99.90
8858;DHT22;4465;50.904;4.696;2023-02-08T13:34:26;12.40;99.90
8858;DHT22;4465;50.904;4.696;2023-02-08T13:36:59;12.50;99.90
8858;DHT22;4465;50.904;4.696;2023-02-08T13:39:35;12.40;99.90
8858;DHT22;4465;50.904;4.696;2023-02-08T13:42:05;12.40;99.90
8858;DHT22;4465;50.904;4.696;2023-02-08T13:44:37;12.40;99.90
8858;DHT22;4465;50.904;4.696;2023-02-08T13:47:29;12.50;99.90
8858;DHT22;4465;50.904;4.696;2023-02-08T13:50:04;12.50;99.90
8858;DHT22;4465;50.904;4.696;2023-02-08T14:00:35;12.00;99.90
8858;DHT22;4465;50.904;4.696;2023-02-08T14:05:49;11.50;99.90
8858;DHT22;4465;50.904;4.696;2023-02-08T14:11:13;11.30;99.90
8858;DHT22;4465;50.904;4.696;2023-02-08T14:14:06;11.20;99.90
8858;DHT22;4465;50.904;4.696;2023-02-08T14:19:32;11.30;99.90
8858;DHT22;4465;50.904;4.696;2023-02-08T14:24:40;11.20;99.90
8858;DHT22;4465;50.904;4.696;2023-02-08T14:35:32;11.30;99.90
8858;DHT22;4465;50.904;4.696;2023-02-08T14:45:50;11.50;99.90
8858;DHT22;4465;50.904;4.696;2023-02-08T14:48:26;11.50;99.90
8858;DHT22;4465;50.904;4.696;2023-02-08T14:56:24;11.00;99.90
8858;DHT22;4465;50.904;4.696;2023-02-08T15:01:47;10.60;99.90
8858;DHT22;4465;50.904;4.696;2023-02-08T15:04:18;10.40;99.90
8858;DHT22;4465;50.904;4.696;2023-02-08T15:07:14;10.20;99.90
8858;DHT22;4465;50.904;4.696;2023-02-08T15:09:43;10.00;99.90
8858;DHT22;4465;50.904;4.696;2023-02-08T15:12:28;9.80;99.90
8858;DHT22;4465;50.904;4.696;2023-02-08T15:14:59;9.60;99.90
8858;DHT22;4465;50.904;4.696;2023-02-08T15:17:45;9.40;99.90
8858;DHT22;4465;50.904;4.696;2023-02-08T15:20:27;9.20;99.90
8858;DHT22;4465;50.904;4.696;2023-02-08T15:23:14;9.10;99.90
8858;DHT22;4465;50.904;4.696;2023-02-08T15:25:42;8.90;99.90
8858;DHT22;4465;50.904;4.696;2023-02-08T15:28:22;8.70;99.90
8858;DHT22;4465;50.904;4.696;2023-02-08T15:33:22;8.60;99.90
8858;DHT22;4465;50.904;4.696;2023-02-08T15:38:26;8.40;99.90
8858;DHT22;4465;50.904;4.696;2023-02-08T15:41:05;8.30;99.90
8858;DHT22;4465;50.904;4.696;2023-02-08T15:43:32;8.30;99.90
8858;DHT22;4465;50.904;4.696;2023-02-08T15:46:01;8.20;99.90
8858;DHT22;4465;50.904;4.696;2023-02-08T15:48:28;8.20;99.90
8858;DHT22;4465;50.904;4.696;2023-02-08T15:50:55;8.10;99.90
8858;DHT22;4465;50.904;4.696;2023-02-08T15:53:21;8.10;99.90
8858;DHT22;4465;50.904;4.696;2023-02-08T15:56:01;8.10;99.90
8858;DHT22;4465;50.904;4.696;2023-02-08T15:58:32;8.00;99.90
8858;DHT22;4465;50.904;4.696;2023-02-08T16:01:01;8.00;99.90
8858;DHT22;4465;50.904;4.696;2023-02-08T16:03:29;8.00;99.90
8858;DHT22;4465;50.904;4.696;2023-02-08T16:06:04;7.90;99.90
8858;DHT22;4465;50.904;4.696;2023-02-08T16:08:34;7.80;99.90
8858;DHT22;4465;50.904;4.696;2023-02-08T16:11:11;7.80;99.90
8858;DHT22;4465;50.904;4.696;2023-02-08T16:13:39;7.70;99.90
8858;DHT22;4465;50.904;4.696;2023-02-08T16:16:22;7.70;99.90
8858;DHT22;4465;50.904;4.696;2023-02-08T16:19:21;7.60;99.90
8858;DHT22;4465;50.904;4.696;2023-02-08T16:21:47;7.50;99.90
8858;DHT22;4465;50.904;4.696;2023-02-08T16:24:21;7.50;99.90
8858;DHT22;4465;50.904;4.696;2023-02-08T16:27:19;7.40;99.90
8858;DHT22;4465;50.904;4.696;2023-02-08T16:29:49;7.40;99.90
8858;DHT22;4465;50.904;4.696;2023-02-08T16:32:30;7.30;99.90
8858;DHT22;4465;50.904;4.696;2023-02-08T16:34:56;7.20;99.90
8858;DHT22;4465;50.904;4.696;2023-02-08T16:37:26;7.20;99.90
8858;DHT22;4465;50.904;4.696;2023-02-08T16:40:08;7.10;99.90
8858;DHT22;4465;50.904;4.696;2023-02-08T16:42:49;7.00;99.90
8858;DHT22;4465;50.904;4.696;2023-02-08T16:45:19;6.90;99.90
8858;DHT22;4465;50.904;4.696;2023-02-08T16:47:56;6.90;99.90
8858;DHT22;4465;50.904;4.696;2023-02-08T16:50:25;6.80;99.90
8858;DHT22;4465;50.904;4.696;2023-02-08T16:52:55;6.70;99.90
8858;DHT22;4465;50.904;4.696;2023-02-08T16:55:25;6.70;99.90
8858;DHT22;4465;50.904;4.696;2023-02-08T16:57:54;6.60;99.90
8858;DHT22;4465;50.904;4.696;2023-02-08T17:00:32;6.40;99.90
8858;DHT22;4465;50.904;4.696;2023-02-08T17:02:59;6.30;99.90
8858;DHT22;4465;50.904;4.696;2023-02-08T17:05:28;6.20;99.90
8858;DHT22;4465;50.904;4.696;2023-02-08T17:07:57;6.10;99.90
8858;DHT22;4465;50.904;4.696;2023-02-08T17:10:31;6.00;99.90
8858;DHT22;4465;50.904;4.696;2023-02-08T17:12:58;5.90;99.90
8858;DHT22;4465;50.904;4.696;2023-02-08T17:15:32;5.80;99.90
8858;DHT22;4465;50.904;4.696;2023-02-08T17:17:58;5.70;99.90
8858;DHT22;4465;50.904;4.696;2023-02-08T17:20:27;5.60;99.90
8858;DHT22;4465;50.904;4.696;2023-02-08T17:22:57;5.50;99.90
8858;DHT22;4465;50.904;4.696;2023-02-08T17:25:24;5.40;99.90
8858;DHT22;4465;50.904;4.696;2023-02-08T17:27:59;5.30;99.90
8858;DHT22;4465;50.904;4.696;2023-02-08T17:30:35;5.30;99.90
8858;DHT22;4465;50.904;4.696;2023-02-08T17:33:04;5.20;99.90
8858;DHT22;4465;50.904;4.696;2023-02-08T17:35:34;5.10;99.90
8858;DHT22;4465;50.904;4.696;2023-02-08T17:38:02;5.10;99.90
8858;DHT22;4465;50.904;4.696;2023-02-08T17:40:33;4.90;99.90
8858;DHT22;4465;50.904;4.696;2023-02-08T17:43:00;4.90;99.90
8858;DHT22;4465;50.904;4.696;2023-02-08T17:45:27;4.80;99.90
8858;DHT22;4465;50.904;4.696;2023-02-08T17:47:53;4.80;99.90
8858;DHT22;4465;50.904;4.696;2023-02-08T17:50:22;4.60;99.90
8858;DHT22;4465;50.904;4.696;2023-02-08T17:52:49;4.60;99.90
8858;DHT22;4465;50.904;4.696;2023-02-08T17:55:16;4.50;99.90
8858;DHT22;4465;50.904;4.696;2023-02-08T17:57:43;4.40;99.90
8858;DHT22;4465;50.904;4.696;2023-02-08T18:00:15;4.30;99.90
8858;DHT22;4465;50.904;4.696;2023-02-08T18:02:48;4.20;99.90
8858;DHT22;4465;50.904;4.696;2023-02-08T18:05:16;4.20;99.90
8858;DHT22;4465;50.904;4.696;2023-02-08T18:07:42;4.10;99.90
8858;DHT22;4465;50.904;4.696;2023-02-08T18:10:09;4.00;99.90
8858;DHT22;4465;50.904;4.696;2023-02-08T18:12:38;4.00;99.90
8858;DHT22;4465;50.904;4.696;2023-02-08T18:15:06;3.90;99.90
8858;DHT22;4465;50.904;4.696;2023-02-08T18:17:32;3.90;99.90
8858;DHT22;4465;50.904;4.696;2023-02-08T18:19:59;3.80;99.90
8858;DHT22;4465;50.904;4.696;2023-02-08T18:22:27;3.80;99.90
8858;DHT22;4465;50.904;4.696;2023-02-08T18:24:54;3.80;99.90
8858;DHT22;4465;50.904;4.696;2023-02-08T18:27:21;3.70;99.90
8858;DHT22;4465;50.904;4.696;2023-02-08T18:29:49;3.60;99.90
8858;DHT22;4465;50.904;4.696;2023-02-08T18:32:16;3.60;99.90
8858;DHT22;4465;50.904;4.696;2023-02-08T18:34:44;3.50;99.90
8858;DHT22;4465;50.904;4.696;2023-02-08T18:37:10;3.50;99.90
8858;DHT22;4465;50.904;4.696;2023-02-08T18:39:37;3.50;99.90
8858;DHT22;4465;50.904;4.696;2023-02-08T18:42:04;3.40;99.90
8858;DHT22;4465;50.904;4.696;2023-02-08T18:44:30;3.40;99.90
8858;DHT22;4465;50.904;4.696;2023-02-08T18:46:55;3.30;99.90
8858;DHT22;4465;50.904;4.696;2023-02-08T18:49:21;3.20;99.90
8858;DHT22;4465;50.904;4.696;2023-02-08T18:51:48;3.20;99.90
8858;DHT22;4465;50.904;4.696;2023-02-08T18:54:16;3.10;99.90